Time;durP1;ratioP1;P1;durP2;ratioP2;P2;SDS_P1;SDS_P2;PMS_P1;PMS_P2;Temp;Humidity;BMP_temperature;BMP_pressure;BME280_temperature;BME280_humidity;BME280_pressure;Samples;Min_cycle;Max_cycle;Signal;HPM_P1;HPM_P2
2023/05/22 00:01:13;;;;;;;10.48;9.65;;;;;;;;;;4191199;28;20449;-58
2023/05/22 00:03:35;;;;;;;9.90;9.10;;;;;;;;;;4191062;28;20055;-58
2023/05/22 00:05:57;;;;;;;11.23;10.48;;;;;;;;;;4194404;28;20371;-59
2023/05/22 00:08:17;;;;;;;9.43;9.13;;;;;;;;;;4192873;28;20047;-58
2023/05/22 00:10:38;;;;;;;11.60;10.70;;;;;;;;;;4193021;28;20044;-58
2023/05/22 00:12:59;;;;;;;9.55;8.95;;;;;;;;;;4193142;28;20043;-58
2023/05/22 00:15:19;;;;;;;9.98;9.50;;;;;;;;;;4191710;28;20091;-58
2023/05/22 00:17:41;;;;;;;11.55;10.68;;;;;;;;;;4193946;28;20079;-58
2023/05/22 00:20:41;;;;;;;10.40;9.65;;;;;;;;;;4190803;28;20032;-58
2023/05/22 00:23:01;;;;;;;9.43;9.00;;;;;;;;;;4190666;28;20051;-58
2023/05/22 00:25:22;;;;;;;8.77;8.40;;;;;;;;;;4192844;28;20047;-58
2023/05/22 00:27:42;;;;;;;10.43;9.43;;;;;;;;;;4194456;28;20051;-58
2023/05/22 00:30:02;;;;;;;10.25;9.70;;;;;;;;;;4190782;28;20060;-58
2023/05/22 00:32:22;;;;;;;10.13;9.70;;;;;;;;;;4189590;28;20048;-58
2023/05/22 00:34:43;;;;;;;10.40;9.90;;;;;;;;;;4192372;28;20044;-58
2023/05/22 00:37:03;;;;;;;10.32;9.93;;;;;;;;;;4194353;28;20086;-58
2023/05/22 00:39:24;;;;;;;10.85;10.45;;;;;;;;;;4189434;28;20055;-58
2023/05/22 00:41:44;;;;;;;11.32;10.48;;;;;;;;;;4190387;28;20090;-58
2023/05/22 00:44:04;;;;;;;10.80;10.20;;;;;;;;;;4191004;28;20052;-58
2023/05/22 00:46:24;;;;;;;9.77;9.32;;;;;;;;;;4189759;28;20109;-58
2023/05/22 00:48:45;;;;;;;9.00;8.80;;;;;;;;;;4190281;28;20048;-58
2023/05/22 00:51:07;;;;;;;9.27;8.88;;;;;;;;;;4190922;28;20048;-58
2023/05/22 00:53:28;;;;;;;9.60;9.03;;;;;;;;;;4191578;28;20108;-58
2023/05/22 00:55:48;;;;;;;10.25;9.85;;;;;;;;;;4190614;28;20071;-58
2023/05/22 00:58:10;;;;;;;10.55;9.82;;;;;;;;;;4191138;28;20047;-59
2023/05/22 01:00:33;;;;;;;9.32;9.13;;;;;;;;;;4191868;28;20039;-58
2023/05/22 01:02:53;;;;;;;9.07;8.45;;;;;;;;;;4192138;28;20371;-58
2023/05/22 01:05:16;;;;;;;9.02;8.73;;;;;;;;;;4173484;28;20397;-58
2023/05/22 01:07:37;;;;;;;9.82;9.27;;;;;;;;;;4190619;28;20167;-58
2023/05/22 01:09:57;;;;;;;8.55;8.05;;;;;;;;;;4190175;28;20131;-58
2023/05/22 01:12:31;;;;;;;9.40;8.73;;;;;;;;;;4192128;28;20056;-58
2023/05/22 01:14:54;;;;;;;9.70;9.05;;;;;;;;;;4189041;28;20048;-58
2023/05/22 01:17:15;;;;;;;9.60;9.10;;;;;;;;;;4191653;28;20091;-58
2023/05/22 01:19:46;;;;;;;9.35;7.70;;;;;;;;;;4192166;28;20055;-58
2023/05/22 01:22:06;;;;;;;9.52;8.88;;;;;;;;;;4191138;28;20236;-59
2023/05/22 01:24:36;;;;;;;8.57;8.32;;;;;;;;;;4189785;28;20383;-58
2023/05/22 01:26:59;;;;;;;8.80;8.00;;;;;;;;;;4190845;28;20063;-58
2023/05/22 01:29:22;;;;;;;10.13;9.48;;;;;;;;;;4189761;28;20071;-58
2023/05/22 01:31:44;;;;;;;9.30;8.68;;;;;;;;;;4190357;28;20043;-58
2023/05/22 01:34:05;;;;;;;11.30;10.50;;;;;;;;;;4189511;28;20332;-58
2023/05/22 01:36:28;;;;;;;9.60;9.00;;;;;;;;;;4189625;28;20048;-58
2023/05/22 01:38:50;;;;;;;10.13;9.15;;;;;;;;;;4189602;28;20043;-59
2023/05/22 01:41:10;;;;;;;9.25;8.82;;;;;;;;;;4189587;28;20052;-58
2023/05/22 01:43:30;;;;;;;12.55;9.95;;;;;;;;;;4191838;28;20401;-58
2023/05/22 01:45:51;;;;;;;9.60;8.95;;;;;;;;;;4193486;28;20036;-58
2023/05/22 01:48:11;;;;;;;9.18;8.88;;;;;;;;;;4196076;28;20063;-58
2023/05/22 01:50:31;;;;;;;9.55;9.10;;;;;;;;;;4189816;28;20043;-58
2023/05/22 01:52:58;;;;;;;10.68;9.88;;;;;;;;;;4191968;28;20059;-58
2023/05/22 01:55:26;;;;;;;10.30;9.70;;;;;;;;;;4192925;28;20243;-58
2023/05/22 01:57:52;;;;;;;9.82;9.43;;;;;;;;;;4194484;28;20279;-59
2023/05/22 02:00:14;;;;;;;10.88;10.45;;;;;;;;;;4189389;28;20366;-58
2023/05/22 02:02:35;;;;;;;9.63;9.25;;;;;;;;;;4191927;28;20055;-59
2023/05/22 02:04:58;;;;;;;11.07;10.68;;;;;;;;;;4189267;28;20047;-58
2023/05/22 02:07:20;;;;;;;10.00;9.27;;;;;;;;;;4189670;28;20052;-59
2023/05/22 02:09:41;;;;;;;11.18;10.48;;;;;;;;;;4189372;28;20112;-59
2023/05/22 02:12:02;;;;;;;10.95;9.93;;;;;;;;;;4188624;28;20087;-59
2023/05/22 02:14:23;;;;;;;9.90;9.40;;;;;;;;;;4189699;28;20078;-59
2023/05/22 02:16:46;;;;;;;10.52;9.95;;;;;;;;;;4173804;28;20049;-59
2023/05/22 02:19:06;;;;;;;10.13;9.73;;;;;;;;;;4190790;28;20047;-59
2023/05/22 02:21:26;;;;;;;10.10;9.73;;;;;;;;;;4190639;28;20083;-59
2023/05/22 02:23:47;;;;;;;10.95;10.40;;;;;;;;;;4190852;28;20047;-59
2023/05/22 02:26:07;;;;;;;11.05;10.60;;;;;;;;;;4190612;28;20401;-58
2023/05/22 02:28:27;;;;;;;11.07;10.48;;;;;;;;;;4190581;28;20040;-58
2023/05/22 02:30:47;;;;;;;11.40;10.38;;;;;;;;;;4191537;28;20051;-59
2023/05/22 02:33:08;;;;;;;10.52;9.77;;;;;;;;;;4192137;28;20056;-58
2023/05/22 02:35:28;;;;;;;11.45;10.90;;;;;;;;;;4189965;28;20047;-59
2023/05/22 02:37:48;;;;;;;9.88;9.27;;;;;;;;;;4191507;28;20101;-59
2023/05/22 02:40:11;;;;;;;11.95;11.23;;;;;;;;;;4192041;28;20048;-59
2023/05/22 02:42:32;;;;;;;10.52;9.75;;;;;;;;;;4190528;28;20374;-58
2023/05/22 02:44:52;;;;;;;11.13;10.68;;;;;;;;;;4189483;28;20386;-59
2023/05/22 02:47:12;;;;;;;10.52;10.02;;;;;;;;;;4191222;28;20083;-59
2023/05/22 02:49:32;;;;;;;10.98;10.40;;;;;;;;;;4191430;28;20095;-59
2023/05/22 02:51:52;;;;;;;10.18;9.73;;;;;;;;;;4189389;28;20087;-59
2023/05/22 02:54:14;;;;;;;11.52;11.02;;;;;;;;;;4188456;28;20063;-59
2023/05/22 02:56:35;;;;;;;9.65;9.32;;;;;;;;;;4190167;28;20044;-59
2023/05/22 02:58:58;;;;;;;10.20;9.65;;;;;;;;;;4190493;28;20111;-59
2023/05/22 03:01:18;;;;;;;11.02;10.63;;;;;;;;;;4188879;28;20109;-59
2023/05/22 03:03:38;;;;;;;10.98;10.35;;;;;;;;;;4189574;28;20371;-59
2023/05/22 03:06:00;;;;;;;10.07;9.73;;;;;;;;;;4189900;28;20052;-59
2023/05/22 03:08:20;;;;;;;10.07;9.57;;;;;;;;;;4189285;28;20086;-59
2023/05/22 03:10:40;;;;;;;11.15;10.05;;;;;;;;;;4172829;28;20078;-59
2023/05/22 03:13:01;;;;;;;10.73;10.00;;;;;;;;;;4189370;28;20151;-58
2023/05/22 03:15:21;;;;;;;9.82;9.43;;;;;;;;;;4188847;28;20043;-59
2023/05/22 03:17:41;;;;;;;9.55;8.85;;;;;;;;;;4188503;28;20363;-59
2023/05/22 03:20:02;;;;;;;9.77;9.02;;;;;;;;;;4188402;28;20048;-59
2023/05/22 03:22:23;;;;;;;10.02;9.80;;;;;;;;;;4189990;28;20047;-59
2023/05/22 03:24:49;;;;;;;9.77;9.35;;;;;;;;;;4192620;28;20228;-59
2023/05/22 03:27:10;;;;;;;8.88;8.55;;;;;;;;;;4187100;28;20056;-59
2023/05/22 03:29:30;;;;;;;8.68;8.45;;;;;;;;;;4173995;28;20052;-59
2023/05/22 03:31:51;;;;;;;10.48;10.18;;;;;;;;;;4188802;28;20048;-59
2023/05/22 03:34:11;;;;;;;10.43;9.75;;;;;;;;;;4188715;28;20047;-59
2023/05/22 03:36:35;;;;;;;9.27;8.98;;;;;;;;;;4189288;28;20048;-59
2023/05/22 03:38:56;;;;;;;8.40;8.00;;;;;;;;;;4191297;28;20360;-59
2023/05/22 03:41:16;;;;;;;10.00;9.60;;;;;;;;;;4191969;28;20082;-59
2023/05/22 03:43:37;;;;;;;9.90;9.10;;;;;;;;;;4192018;28;20068;-59
2023/05/22 03:45:58;;;;;;;10.18;9.68;;;;;;;;;;4192391;28;20087;-59
2023/05/22 03:48:18;;;;;;;12.68;8.65;;;;;;;;;;4192035;28;20163;-59
2023/05/22 03:50:38;;;;;;;9.80;9.43;;;;;;;;;;4192439;28;20089;-59
2023/05/22 03:52:59;;;;;;;9.70;9.38;;;;;;;;;;4191311;28;20048;-59
2023/05/22 03:55:20;;;;;;;10.60;10.02;;;;;;;;;;4192761;28;20529;-59
2023/05/22 03:57:40;;;;;;;9.90;9.50;;;;;;;;;;4192311;28;20077;-59
2023/05/22 04:00:08;;;;;;;9.20;9.00;;;;;;;;;;4192718;28;20044;-59
2023/05/22 04:02:28;;;;;;;12.55;7.80;;;;;;;;;;4192141;28;20371;-59
2023/05/22 04:04:49;;;;;;;9.88;9.25;;;;;;;;;;4194195;28;20108;-59
2023/05/22 04:07:12;;;;;;;9.90;9.48;;;;;;;;;;4192475;28;20044;-59
2023/05/22 04:09:33;;;;;;;;;;;;;;;;;;4193091;28;20043;-59
2023/05/22 04:11:54;;;;;;;9.27;8.57;;;;;;;;;;4192882;28;19923;-59
2023/05/22 04:14:14;;;;;;;9.90;9.07;;;;;;;;;;4192873;28;20083;-58
2023/05/22 04:16:35;;;;;;;9.38;9.05;;;;;;;;;;4192785;28;20075;-58
2023/05/22 04:18:55;;;;;;;10.23;9.73;;;;;;;;;;4192741;28;20087;-58
2023/05/22 04:21:16;;;;;;;10.68;9.90;;;;;;;;;;4193208;28;20086;-59
2023/05/22 04:23:37;;;;;;;10.55;10.05;;;;;;;;;;4192686;28;20103;-59
2023/05/22 04:26:01;;;;;;;9.75;9.25;;;;;;;;;;4191855;28;20087;-59
2023/05/22 04:28:21;;;;;;;10.85;10.05;;;;;;;;;;4190630;28;20055;-59
2023/05/22 04:30:41;;;;;;;9.68;9.32;;;;;;;;;;4191963;28;20415;-59
2023/05/22 04:33:05;;;;;;;10.60;10.05;;;;;;;;;;4190538;28;20285;-58
2023/05/22 04:35:28;;;;;;;9.98;9.60;;;;;;;;;;4191629;28;20048;-58
2023/05/22 04:37:49;;;;;;;10.35;9.90;;;;;;;;;;4191888;28;20087;-59
2023/05/22 04:40:10;;;;;;;11.15;10.05;;;;;;;;;;4191400;28;20056;-58
2023/05/22 04:42:30;;;;;;;10.50;10.10;;;;;;;;;;4191048;28;20040;-59
2023/05/22 04:44:56;;;;;;;9.90;9.27;;;;;;;;;;4191491;28;20068;-58
2023/05/22 04:47:17;;;;;;;9.20;8.77;;;;;;;;;;4191135;28;20145;-59
2023/05/22 04:49:38;;;;;;;10.68;10.25;;;;;;;;;;4189557;28;20228;-59
2023/05/22 04:51:58;;;;;;;11.70;10.88;;;;;;;;;;4190405;28;20151;-58
2023/05/22 04:54:18;;;;;;;10.90;10.40;;;;;;;;;;4190130;28;20075;-59
2023/05/22 04:56:39;;;;;;;11.48;10.68;;;;;;;;;;4190439;28;20048;-59
2023/05/22 04:59:00;;;;;;;11.98;10.18;;;;;;;;;;4190041;28;20052;-59
2023/05/22 05:01:20;;;;;;;11.35;10.48;;;;;;;;;;4190610;28;20082;-59
2023/05/22 05:03:40;;;;;;;11.60;11.00;;;;;;;;;;4190195;28;20229;-58
2023/05/22 05:06:00;;;;;;;10.60;9.98;;;;;;;;;;4190270;28;20055;-58
2023/05/22 05:08:20;;;;;;;10.45;10.05;;;;;;;;;;4191027;28;20351;-58
2023/05/22 05:10:40;;;;;;;8.63;8.32;;;;;;;;;;4191014;28;20355;-58
2023/05/22 05:13:01;;;;;;;9.13;8.73;;;;;;;;;;4191031;28;20048;-59
2023/05/22 05:15:22;;;;;;;10.18;9.40;;;;;;;;;;4191373;28;20501;-58
2023/05/22 05:17:42;;;;;;;10.07;9.43;;;;;;;;;;4190980;28;20043;-59
2023/05/22 05:20:05;;;;;;;9.32;8.82;;;;;;;;;;4190942;28;20064;-57
2023/05/22 05:22:25;;;;;;;;;;;;;;;;;;4192702;28;20071;-57
2023/05/22 05:24:46;;;;;;;9.40;8.88;;;;;;;;;;4192551;28;19939;-57
2023/05/22 05:27:06;;;;;;;8.93;8.32;;;;;;;;;;4190283;28;20411;-57
2023/05/22 05:29:26;;;;;;;9.60;9.32;;;;;;;;;;4189577;28;20091;-57
2023/05/22 05:31:46;;;;;;;10.32;9.82;;;;;;;;;;4191609;28;20043;-57
2023/05/22 05:34:06;;;;;;;9.38;9.05;;;;;;;;;;4193044;28;20070;-57
2023/05/22 05:36:27;;;;;;;8.45;8.25;;;;;;;;;;4189296;28;20056;-57
2023/05/22 05:38:48;;;;;;;8.52;8.30;;;;;;;;;;4190057;28;20043;-57
2023/05/22 05:41:08;;;;;;;8.05;7.75;;;;;;;;;;4192107;28;20146;-57
2023/05/22 05:43:28;;;;;;;9.48;9.05;;;;;;;;;;4193980;28;20071;-58
2023/05/22 05:45:48;;;;;;;8.10;7.90;;;;;;;;;;4190380;28;20106;-57
2023/05/22 05:48:08;;;;;;;6.97;6.68;;;;;;;;;;4192198;28;20055;-57
2023/05/22 05:50:28;;;;;;;7.72;7.07;;;;;;;;;;4193604;28;20044;-57
2023/05/22 05:52:48;;;;;;;6.85;6.65;;;;;;;;;;4191296;28;20055;-57
2023/05/22 05:55:09;;;;;;;7.13;6.70;;;;;;;;;;4189831;28;20043;-57
2023/05/22 05:57:30;;;;;;;5.82;5.63;;;;;;;;;;4191743;28;20058;-57
2023/05/22 05:59:51;;;;;;;6.55;6.40;;;;;;;;;;4192549;28;20090;-57
2023/05/22 06:02:11;;;;;;;5.93;5.53;;;;;;;;;;4189753;28;20382;-58
2023/05/22 06:04:32;;;;;;;6.38;5.97;;;;;;;;;;4175160;28;20235;-57
2023/05/22 06:06:52;;;;;;;5.72;5.45;;;;;;;;;;4190867;28;20047;-57
2023/05/22 06:09:12;;;;;;;6.50;6.10;;;;;;;;;;4191483;28;20086;-57
2023/05/22 06:11:33;;;;;;;5.80;5.57;;;;;;;;;;4190852;28;20109;-58
2023/05/22 06:13:53;;;;;;;8.23;6.10;;;;;;;;;;4189581;28;20082;-58
2023/05/22 06:16:13;;;;;;;5.10;4.97;;;;;;;;;;4191063;28;20102;-57
2023/05/22 06:18:34;;;;;;;6.68;6.43;;;;;;;;;;4190924;28;20055;-58
2023/05/22 06:20:55;;;;;;;6.05;5.70;;;;;;;;;;4189285;28;20071;-58
2023/05/22 06:23:16;;;;;;;7.55;7.22;;;;;;;;;;4187283;28;20317;-58
2023/05/22 06:25:38;;;;;;;8.70;7.30;;;;;;;;;;4189703;28;20102;-58
2023/05/22 06:27:59;;;;;;;6.22;6.10;;;;;;;;;;4189140;28;20071;-58
2023/05/22 06:30:20;;;;;;;6.63;5.90;;;;;;;;;;4187841;28;20244;-59
2023/05/22 06:33:00;;;;;;;8.10;7.43;;;;;;;;;;4162849;28;20041;-59
2023/05/22 06:35:20;;;;;;;5.90;5.70;;;;;;;;;;4187034;28;20048;-59
2023/05/22 06:37:41;;;;;;;5.53;5.32;;;;;;;;;;4189317;28;20048;-59
2023/05/22 06:40:02;;;;;;;5.40;5.28;;;;;;;;;;4188920;28;20403;-60
2023/05/22 06:42:23;;;;;;;4.95;4.85;;;;;;;;;;4174632;28;20052;-59
2023/05/22 06:44:43;;;;;;;6.25;5.05;;;;;;;;;;4190965;28;20052;-59
2023/05/22 06:47:03;;;;;;;4.78;4.57;;;;;;;;;;4189853;28;20059;-60
2023/05/22 06:49:23;;;;;;;4.65;4.45;;;;;;;;;;4190559;28;20105;-60
2023/05/22 06:51:43;;;;;;;5.13;4.82;;;;;;;;;;4190930;28;20075;-60
2023/05/22 06:54:05;;;;;;;5.20;4.80;;;;;;;;;;4190829;28;20075;-59
2023/05/22 06:56:26;;;;;;;4.40;4.13;;;;;;;;;;4188545;28;20079;-60
2023/05/22 06:58:46;;;;;;;5.40;5.20;;;;;;;;;;4190589;28;20052;-60
2023/05/22 07:01:48;;;;;;;5.60;5.35;;;;;;;;;;4193079;28;20346;-59
2023/05/22 07:04:38;;;;;;;5.50;5.00;;;;;;;;;;4194323;28;20266;-60
2023/05/22 07:07:05;;;;;;;4.30;3.95;;;;;;;;;;4190010;28;20051;-59
2023/05/22 07:09:25;;;;;;;4.70;4.45;;;;;;;;;;4192506;28;20090;-60
2023/05/22 07:11:45;;;;;;;4.25;4.05;;;;;;;;;;4193258;28;20052;-59
2023/05/22 07:14:06;;;;;;;4.82;4.45;;;;;;;;;;4191651;28;20056;-60
2023/05/22 07:16:28;;;;;;;4.13;3.85;;;;;;;;;;4192964;28;20056;-60
2023/05/22 07:18:49;;;;;;;4.85;4.40;;;;;;;;;;4195544;28;20444;-60
2023/05/22 07:21:09;;;;;;;5.97;3.97;;;;;;;;;;4196404;28;20052;-60
2023/05/22 07:23:29;;;;;;;4.32;4.13;;;;;;;;;;4192888;28;20282;-60
2023/05/22 07:25:50;;;;;;;3.92;3.70;;;;;;;;;;4193224;28;20079;-60
2023/05/22 07:28:11;;;;;;;4.43;3.45;;;;;;;;;;4195266;28;20154;-60
2023/05/22 07:30:31;;;;;;;3.92;3.53;;;;;;;;;;4191799;28;20078;-60
2023/05/22 07:32:51;;;;;;;3.55;3.45;;;;;;;;;;4192865;28;20052;-60
2023/05/22 07:35:11;;;;;;;3.67;3.58;;;;;;;;;;4193663;28;20071;-60
2023/05/22 07:37:31;;;;;;;3.95;3.65;;;;;;;;;;4194413;28;20390;-60
2023/05/22 07:39:52;;;;;;;5.80;4.68;;;;;;;;;;4192322;28;20043;-60
2023/05/22 07:42:15;;;;;;;3.80;3.30;;;;;;;;;;4193021;28;20055;-60
2023/05/22 07:44:35;;;;;;;3.88;3.67;;;;;;;;;;4193517;28;20379;-60
2023/05/22 07:46:56;;;;;;;3.38;3.05;;;;;;;;;;4190757;28;20047;-60
2023/05/22 07:49:19;;;;;;;2.72;2.63;;;;;;;;;;4191485;28;20056;-60
2023/05/22 07:51:39;;;;;;;2.80;2.60;;;;;;;;;;4191706;28;20101;-60
2023/05/22 07:54:00;;;;;;;5.03;3.67;;;;;;;;;;4191861;28;20051;-60
2023/05/22 07:56:21;;;;;;;3.95;3.75;;;;;;;;;;4190557;28;20087;-60
2023/05/22 07:58:42;;;;;;;3.22;3.08;;;;;;;;;;4191827;28;20252;-60
2023/05/22 08:01:03;;;;;;;3.47;3.25;;;;;;;;;;4192462;28;20059;-60
2023/05/22 08:03:25;;;;;;;2.83;2.72;;;;;;;;;;4192021;28;20070;-60
2023/05/22 08:05:46;;;;;;;3.95;3.75;;;;;;;;;;4191666;28;20091;-60
2023/05/22 08:08:06;;;;;;;2.63;2.53;;;;;;;;;;4191749;28;20428;-61
2023/05/22 08:10:27;;;;;;;8.95;2.92;;;;;;;;;;4191380;28;20068;-60
2023/05/22 08:13:01;;;;;;;4.28;2.45;;;;;;;;;;4191399;28;20103;-61
2023/05/22 08:15:21;;;;;;;2.95;2.58;;;;;;;;;;4190564;28;20051;-61
2023/05/22 08:17:41;;;;;;;2.53;2.33;;;;;;;;;;4191190;28;20249;-61
2023/05/22 08:20:01;;;;;;;2.15;1.60;;;;;;;;;;4190997;28;20083;-60
2023/05/22 08:22:21;;;;;;;1.70;1.60;;;;;;;;;;4192406;28;20048;-60
2023/05/22 08:24:41;;;;;;;2.13;1.92;;;;;;;;;;4192761;28;20063;-60
2023/05/22 08:27:02;;;;;;;2.03;1.58;;;;;;;;;;4192789;28;20090;-60
2023/05/22 08:29:22;;;;;;;1.85;1.75;;;;;;;;;;4192747;28;20056;-60
2023/05/22 08:31:42;;;;;;;1.83;1.73;;;;;;;;;;4191017;28;20063;-61
2023/05/22 08:34:03;;;;;;;4.22;1.85;;;;;;;;;;4193352;28;20094;-60
2023/05/22 08:36:24;;;;;;;1.80;1.38;;;;;;;;;;4190786;28;20086;-61
2023/05/22 08:38:44;;;;;;;1.60;1.50;;;;;;;;;;4192165;28;20435;-61
2023/05/22 08:41:04;;;;;;;1.70;1.60;;;;;;;;;;4191349;28;20043;-60
2023/05/22 08:43:24;;;;;;;1.35;1.25;;;;;;;;;;4193583;28;20109;-61
2023/05/22 08:45:44;;;;;;;1.45;1.20;;;;;;;;;;4191257;28;20094;-60
2023/05/22 08:48:05;;;;;;;2.60;1.50;;;;;;;;;;4191835;28;20235;-61
2023/05/22 08:50:26;;;;;;;1.60;1.50;;;;;;;;;;4192120;28;20372;-61
2023/05/22 08:52:50;;;;;;;1.52;1.40;;;;;;;;;;4177222;28;20257;-60
2023/05/22 08:55:10;;;;;;;1.50;1.40;;;;;;;;;;4190699;28;20079;-61
2023/05/22 08:57:31;;;;;;;4.53;1.10;;;;;;;;;;4188777;28;20044;-61
2023/05/22 08:59:52;;;;;;;2.30;1.42;;;;;;;;;;4192186;28;20092;-61
2023/05/22 09:02:12;;;;;;;1.60;1.25;;;;;;;;;;4191843;28;20060;-61
2023/05/22 09:04:32;;;;;;;1.45;1.10;;;;;;;;;;4192261;28;20287;-60
2023/05/22 09:06:54;;;;;;;2.15;1.27;;;;;;;;;;4191394;28;20068;-61
2023/05/22 09:09:14;;;;;;;3.67;1.10;;;;;;;;;;4192950;28;20112;-61
2023/05/22 09:11:35;;;;;;;4.20;1.35;;;;;;;;;;4191604;28;20047;-61
2023/05/22 09:14:07;;;;;;;1.77;1.30;;;;;;;;;;4190222;28;20047;-61
2023/05/22 09:16:27;;;;;;;2.25;1.10;;;;;;;;;;4189538;28;20048;-61
2023/05/22 09:18:48;;;;;;;1.02;1.00;;;;;;;;;;4189676;28;20044;-61
2023/05/22 09:21:08;;;;;;;2.97;1.10;;;;;;;;;;4189452;28;20068;-61
2023/05/22 09:23:52;;;;;;;1.90;1.00;;;;;;;;;;4188318;28;20086;-61
2023/05/22 09:26:13;;;;;;;1.52;1.00;;;;;;;;;;4189527;28;20131;-61
2023/05/22 09:28:36;;;;;;;1.67;1.00;;;;;;;;;;4191501;28;20047;-61
2023/05/22 09:30:57;;;;;;;0.90;0.90;;;;;;;;;;4191263;28;20051;-61
2023/05/22 09:33:18;;;;;;;1.45;1.40;;;;;;;;;;4189738;28;20052;-62
2023/05/22 09:35:38;;;;;;;2.67;1.05;;;;;;;;;;4182560;28;20044;-61
2023/05/22 09:37:58;;;;;;;1.00;1.00;;;;;;;;;;4172103;28;20048;-61
2023/05/22 09:40:19;;;;;;;1.50;1.40;;;;;;;;;;4190977;28;20063;-60
2023/05/22 09:42:43;;;;;;;1.60;1.02;;;;;;;;;;4189314;28;20090;-61
2023/05/22 09:45:07;;;;;;;1.92;0.90;;;;;;;;;;4189984;28;20044;-61
2023/05/22 09:47:28;;;;;;;2.65;1.40;;;;;;;;;;4190272;28;20059;-61
2023/05/22 09:49:48;;;;;;;1.95;1.10;;;;;;;;;;4189709;28;20142;-61
2023/05/22 09:52:09;;;;;;;1.33;1.23;;;;;;;;;;4189838;28;20044;-62
2023/05/22 09:54:29;;;;;;;2.35;1.20;;;;;;;;;;4189624;28;20271;-62
2023/05/22 09:56:50;;;;;;;1.85;1.10;;;;;;;;;;4189899;28;20048;-61
2023/05/22 09:59:11;;;;;;;2.58;1.02;;;;;;;;;;4188956;28;20059;-61
2023/05/22 10:01:32;;;;;;;1.20;1.10;;;;;;;;;;4190761;28;20067;-61
2023/05/22 10:03:54;;;;;;;2.13;1.35;;;;;;;;;;4193766;28;20051;-61
2023/05/22 10:06:16;;;;;;;0.98;0.98;;;;;;;;;;4192521;28;20039;-61
2023/05/22 10:08:41;;;;;;;1.20;1.10;;;;;;;;;;4191323;28;20056;-61
2023/05/22 10:11:02;;;;;;;2.65;1.33;;;;;;;;;;4192311;28;20044;-61
2023/05/22 10:13:23;;;;;;;1.10;1.00;;;;;;;;;;4192712;28;20302;-61
2023/05/22 10:15:44;;;;;;;1.00;1.00;;;;;;;;;;4187247;28;20087;-61
2023/05/22 10:18:05;;;;;;;1.38;1.20;;;;;;;;;;4191566;28;20367;-60
2023/05/22 10:20:26;;;;;;;1.45;1.10;;;;;;;;;;4191671;28;20060;-60
2023/05/22 10:22:49;;;;;;;2.17;1.30;;;;;;;;;;4192586;28;20326;-60
2023/05/22 10:25:10;;;;;;;3.28;1.52;;;;;;;;;;4187979;28;20054;-61
2023/05/22 10:27:31;;;;;;;2.38;1.15;;;;;;;;;;4192044;28;20415;-60
2023/05/22 10:30:02;;;;;;;3.35;1.65;;;;;;;;;;4193055;28;20040;-60
2023/05/22 10:32:23;;;;;;;1.17;1.17;;;;;;;;;;4194036;28;20245;-61
2023/05/22 10:35:03;;;;;;;1.42;1.02;;;;;;;;;;4190276;28;20071;-61
2023/05/22 10:37:30;;;;;;;1.75;1.08;;;;;;;;;;4189621;28;20048;-61
2023/05/22 10:40:09;;;;;;;1.30;1.20;;;;;;;;;;4188898;28;20079;-61
2023/05/22 10:42:30;;;;;;;2.25;0.90;;;;;;;;;;4187778;28;20240;-62
2023/05/22 10:44:52;;;;;;;2.70;1.20;;;;;;;;;;4189468;28;20055;-61
2023/05/22 10:47:13;;;;;;;1.50;1.00;;;;;;;;;;4189826;28;20402;-60
2023/05/22 10:49:34;;;;;;;1.10;1.10;;;;;;;;;;4186580;28;20127;-61
2023/05/22 10:51:57;;;;;;;1.20;0.90;;;;;;;;;;4189746;28;20082;-61
2023/05/22 10:54:17;;;;;;;2.08;1.30;;;;;;;;;;4190459;28;20271;-60
2023/05/22 10:56:38;;;;;;;1.00;1.00;;;;;;;;;;4190625;28;20375;-61
2023/05/22 10:59:06;;;;;;;1.00;1.00;;;;;;;;;;4189875;28;20091;-60
2023/05/22 11:01:27;;;;;;;1.40;1.00;;;;;;;;;;4188451;28;20063;-61
2023/05/22 11:03:56;;;;;;;1.42;1.05;;;;;;;;;;4189691;28;20126;-61
2023/05/22 11:06:34;;;;;;;1.75;0.93;;;;;;;;;;4191783;28;20248;-61
2023/05/22 11:08:56;;;;;;;1.00;1.00;;;;;;;;;;4189243;28;20040;-61
2023/05/22 11:11:17;;;;;;;2.15;0.98;;;;;;;;;;4188967;28;20366;-61
2023/05/22 11:13:38;;;;;;;1.52;1.00;;;;;;;;;;4190883;28;20142;-61
2023/05/22 11:15:58;;;;;;;1.58;1.10;;;;;;;;;;4189773;28;20083;-61
2023/05/22 11:18:19;;;;;;;2.05;1.00;;;;;;;;;;4187434;28;20059;-61
2023/05/22 11:20:39;;;;;;;4.68;1.08;;;;;;;;;;4188552;28;20043;-61
2023/05/22 11:23:07;;;;;;;1.48;1.13;;;;;;;;;;4190041;28;20106;-61
2023/05/22 11:25:28;;;;;;;1.00;1.00;;;;;;;;;;4189183;28;20060;-61
2023/05/22 11:27:48;;;;;;;1.60;1.20;;;;;;;;;;4188607;28;20083;-61
2023/05/22 11:30:09;;;;;;;1.00;0.90;;;;;;;;;;4187596;28;20051;-61
2023/05/22 11:32:29;;;;;;;1.08;0.95;;;;;;;;;;4188789;28;20276;-61
2023/05/22 11:34:50;;;;;;;0.80;0.80;;;;;;;;;;4188385;28;20044;-62
2023/05/22 11:37:11;;;;;;;2.15;0.80;;;;;;;;;;4188854;28;20060;-61
2023/05/22 11:39:32;;;;;;;0.80;0.80;;;;;;;;;;4187724;28;20344;-61
2023/05/22 11:41:52;;;;;;;0.80;0.80;;;;;;;;;;4188275;28;20112;-60
2023/05/22 11:44:12;;;;;;;1.13;0.90;;;;;;;;;;4189388;28;20321;-60
2023/05/22 11:46:32;;;;;;;0.90;0.90;;;;;;;;;;4189461;28;20040;-60
2023/05/22 11:48:53;;;;;;;0.80;0.80;;;;;;;;;;4191979;28;20143;-60
2023/05/22 11:51:13;;;;;;;1.23;1.10;;;;;;;;;;4190551;28;20048;-60
2023/05/22 11:53:34;;;;;;;0.80;0.80;;;;;;;;;;4188642;28;20047;-60
2023/05/22 11:55:54;;;;;;;0.85;0.80;;;;;;;;;;4189080;28;20161;-60
2023/05/22 11:58:16;;;;;;;1.75;1.02;;;;;;;;;;4191120;28;20063;-60
2023/05/22 12:00:37;;;;;;;0.80;0.80;;;;;;;;;;4191406;28;20178;-61
2023/05/22 12:02:58;;;;;;;0.80;0.80;;;;;;;;;;4191988;28;20051;-61
2023/05/22 12:05:20;;;;;;;0.90;0.90;;;;;;;;;;4191132;28;20036;-61
2023/05/22 12:07:40;;;;;;;1.05;0.80;;;;;;;;;;4190501;28;20083;-61
2023/05/22 12:10:03;;;;;;;2.25;1.00;;;;;;;;;;4191756;28;20386;-61
2023/05/22 12:12:23;;;;;;;;;;;;;;;;;;4192041;28;20059;-60
2023/05/22 12:14:44;;;;;;;3.25;0.90;;;;;;;;;;4191728;28;19950;-61
2023/05/22 12:17:05;;;;;;;0.95;0.75;;;;;;;;;;4191789;28;20051;-60
2023/05/22 12:19:26;;;;;;;1.00;0.90;;;;;;;;;;4192172;28;20087;-61
2023/05/22 12:21:50;;;;;;;1.17;0.80;;;;;;;;;;4191364;28;20116;-61
2023/05/22 12:24:11;;;;;;;2.88;0.85;;;;;;;;;;4190584;28;20086;-61
2023/05/22 12:26:35;;;;;;;1.35;0.95;;;;;;;;;;4191890;28;20533;-61
2023/05/22 12:28:56;;;;;;;1.63;0.90;;;;;;;;;;4192471;28;20237;-60
2023/05/22 12:31:23;;;;;;;0.90;0.90;;;;;;;;;;4191467;28;20115;-61
2023/05/22 12:33:57;;;;;;;2.08;0.82;;;;;;;;;;4190300;28;20363;-61
2023/05/22 12:36:17;;;;;;;0.82;0.82;;;;;;;;;;4191614;28;20059;-60
2023/05/22 12:38:40;;;;;;;1.85;1.42;;;;;;;;;;4192135;28;20056;-61
2023/05/22 12:41:01;;;;;;;1.85;1.00;;;;;;;;;;4192093;28;20299;-60
2023/05/22 12:43:26;;;;;;;1.58;1.48;;;;;;;;;;4192350;28;20056;-59
2023/05/22 12:45:46;;;;;;;10.43;1.10;;;;;;;;;;4192198;28;20121;-59
2023/05/22 12:48:07;;;;;;;2.20;1.13;;;;;;;;;;4175990;28;20047;-60
2023/05/22 12:50:27;;;;;;;2.30;1.08;;;;;;;;;;4192018;28;20394;-59
2023/05/22 12:52:48;;;;;;;2.25;1.10;;;;;;;;;;4190166;28;20087;-60
2023/05/22 12:55:10;;;;;;;2.95;1.20;;;;;;;;;;4192356;28;20331;-60
2023/05/22 12:57:30;;;;;;;2.78;1.10;;;;;;;;;;4191251;28;20086;-60
2023/05/22 12:59:50;;;;;;;1.20;1.10;;;;;;;;;;4191366;28;20271;-59
2023/05/22 13:02:10;;;;;;;1.50;1.00;;;;;;;;;;4191234;28;20044;-59
2023/05/22 13:04:30;;;;;;;1.38;1.10;;;;;;;;;;4192270;28;20067;-60
2023/05/22 13:06:50;;;;;;;1.33;1.17;;;;;;;;;;4191148;28;20079;-60
2023/05/22 13:09:15;;;;;;;1.15;1.10;;;;;;;;;;4191062;28;20047;-59
2023/05/22 13:11:38;;;;;;;2.22;1.00;;;;;;;;;;4189870;28;20039;-60
2023/05/22 13:13:59;;;;;;;1.00;1.00;;;;;;;;;;4181009;28;20382;-59
2023/05/22 13:16:19;;;;;;;2.30;1.00;;;;;;;;;;4188608;28;20156;-59
2023/05/22 13:18:39;;;;;;;4.40;0.90;;;;;;;;;;4190131;28;20047;-59
2023/05/22 13:21:00;;;;;;;1.00;1.00;;;;;;;;;;4190005;28;20379;-60
2023/05/22 13:23:20;;;;;;;3.10;1.15;;;;;;;;;;4193269;28;20044;-59
2023/05/22 13:25:41;;;;;;;2.38;1.30;;;;;;;;;;4189327;28;20036;-59
2023/05/22 13:28:02;;;;;;;1.05;0.95;;;;;;;;;;4189548;28;20087;-60
2023/05/22 13:30:22;;;;;;;2.15;1.05;;;;;;;;;;4190168;28;20044;-60
2023/05/22 13:32:42;;;;;;;3.08;0.90;;;;;;;;;;4188426;28;20115;-59
2023/05/22 13:35:03;;;;;;;4.43;1.38;;;;;;;;;;4190077;28;20087;-60
2023/05/22 13:37:23;;;;;;;2.47;1.15;;;;;;;;;;4189479;28;20072;-60
2023/05/22 13:39:43;;;;;;;1.60;0.98;;;;;;;;;;4190646;28;20047;-60
2023/05/22 13:42:03;;;;;;;2.22;1.13;;;;;;;;;;4190236;28;20047;-59
2023/05/22 13:44:24;;;;;;;0.90;0.90;;;;;;;;;;4190318;28;20233;-59
2023/05/22 13:46:44;;;;;;;1.02;0.90;;;;;;;;;;4190787;28;20071;-60
2023/05/22 13:49:04;;;;;;;1.80;1.20;;;;;;;;;;4190692;28;20083;-60
2023/05/22 13:51:25;;;;;;;1.45;1.30;;;;;;;;;;4190943;28;20044;-60
2023/05/22 13:53:45;;;;;;;1.20;1.10;;;;;;;;;;4190945;28;20043;-59
2023/05/22 13:56:06;;;;;;;1.20;1.20;;;;;;;;;;4192658;28;20116;-59
2023/05/22 13:58:26;;;;;;;1.50;1.40;;;;;;;;;;4192223;28;20461;-60
2023/05/22 14:00:46;;;;;;;1.23;1.17;;;;;;;;;;4190463;28;20099;-60
2023/05/22 14:03:06;;;;;;;1.02;1.02;;;;;;;;;;4190889;28;20091;-59
2023/05/22 14:05:27;;;;;;;1.15;1.15;;;;;;;;;;4192527;28;20067;-60
2023/05/22 14:07:47;;;;;;;2.20;1.33;;;;;;;;;;4193549;28;20555;-59